sensor_id;sensor_type;location;lat;lon;timestamp;P1;durP1;ratioP1;P2;durP2;ratioP2
22476;SDS011;11405;51.698;-0.292;2022-09-13T00:00:38;5.68;;;2.25;;
22476;SDS011;11405;51.698;-0.292;2022-09-13T00:03:05;5.75;;;2.42;;
22476;SDS011;11405;51.698;-0.292;2022-09-13T00:05:32;7.03;;;2.40;;
22476;SDS011;11405;51.698;-0.292;2022-09-13T00:07:58;6.10;;;2.75;;
22476;SDS011;11405;51.698;-0.292;2022-09-13T00:10:24;3.90;;;2.35;;
22476;SDS011;11405;51.698;-0.292;2022-09-13T00:12:50;12.65;;;2.65;;
22476;SDS011;11405;51.698;-0.292;2022-09-13T00:15:16;6.40;;;2.20;;
22476;SDS011;11405;51.698;-0.292;2022-09-13T00:17:42;5.15;;;2.45;;
22476;SDS011;11405;51.698;-0.292;2022-09-13T00:20:08;10.48;;;2.08;;
22476;SDS011;11405;51.698;-0.292;2022-09-13T00:22:35;5.95;;;1.92;;
22476;SDS011;11405;51.698;-0.292;2022-09-13T00:25:02;5.97;;;3.05;;
22476;SDS011;11405;51.698;-0.292;2022-09-13T00:27:28;5.63;;;2.70;;
22476;SDS011;11405;51.698;-0.292;2022-09-13T00:29:54;4.88;;;2.58;;
22476;SDS011;11405;51.698;-0.292;2022-09-13T00:32:20;6.97;;;2.40;;
22476;SDS011;11405;51.698;-0.292;2022-09-13T00:34:46;5.88;;;2.42;;
22476;SDS011;11405;51.698;-0.292;2022-09-13T00:37:12;6.43;;;2.45;;
22476;SDS011;11405;51.698;-0.292;2022-09-13T00:39:38;3.17;;;2.20;;
22476;SDS011;11405;51.698;-0.292;2022-09-13T00:42:04;6.10;;;2.17;;
22476;SDS011;11405;51.698;-0.292;2022-09-13T00:47:21;13.73;;;2.35;;
22476;SDS011;11405;51.698;-0.292;2022-09-13T00:49:48;9.90;;;2.75;;
22476;SDS011;11405;51.698;-0.292;2022-09-13T00:52:16;4.00;;;2.80;;
22476;SDS011;11405;51.698;-0.292;2022-09-13T00:54:45;6.88;;;2.67;;
22476;SDS011;11405;51.698;-0.292;2022-09-13T00:57:11;4.53;;;2.80;;
22476;SDS011;11405;51.698;-0.292;2022-09-13T01:02:04;8.18;;;2.35;;
22476;SDS011;11405;51.698;-0.292;2022-09-13T01:04:31;4.63;;;2.25;;
22476;SDS011;11405;51.698;-0.292;2022-09-13T01:06:59;3.95;;;2.20;;
22476;SDS011;11405;51.698;-0.292;2022-09-13T01:09:27;6.65;;;2.30;;
22476;SDS011;11405;51.698;-0.292;2022-09-13T01:11:56;5.03;;;2.33;;
22476;SDS011;11405;51.698;-0.292;2022-09-13T01:14:28;3.25;;;2.30;;
22476;SDS011;11405;51.698;-0.292;2022-09-13T01:16:55;6.78;;;2.42;;
22476;SDS011;11405;51.698;-0.292;2022-09-13T01:19:21;3.70;;;2.17;;
22476;SDS011;11405;51.698;-0.292;2022-09-13T01:21:57;7.55;;;2.30;;
22476;SDS011;11405;51.698;-0.292;2022-09-13T01:27:22;3.90;;;2.40;;
22476;SDS011;11405;51.698;-0.292;2022-09-13T01:40:16;3.90;;;1.95;;
22476;SDS011;11405;51.698;-0.292;2022-09-13T01:45:22;5.13;;;2.15;;
22476;SDS011;11405;51.698;-0.292;2022-09-13T01:47:59;3.53;;;2.33;;
22476;SDS011;11405;51.698;-0.292;2022-09-13T01:56:05;4.85;;;2.40;;
22476;SDS011;11405;51.698;-0.292;2022-09-13T01:58:45;5.28;;;2.50;;
22476;SDS011;11405;51.698;-0.292;2022-09-13T02:01:24;5.45;;;2.92;;
22476;SDS011;11405;51.698;-0.292;2022-09-13T02:06:20;7.28;;;2.50;;
22476;SDS011;11405;51.698;-0.292;2022-09-13T02:08:48;6.53;;;2.30;;
22476;SDS011;11405;51.698;-0.292;2022-09-13T02:11:16;6.70;;;2.90;;
22476;SDS011;11405;51.698;-0.292;2022-09-13T02:13:48;5.57;;;2.55;;
22476;SDS011;11405;51.698;-0.292;2022-09-13T02:16:16;4.90;;;2.67;;
22476;SDS011;11405;51.698;-0.292;2022-09-13T02:18:54;4.90;;;2.65;;
22476;SDS011;11405;51.698;-0.292;2022-09-13T02:21:24;3.90;;;2.17;;
22476;SDS011;11405;51.698;-0.292;2022-09-13T02:24:02;4.10;;;2.28;;
22476;SDS011;11405;51.698;-0.292;2022-09-13T02:26:30;4.03;;;2.83;;
22476;SDS011;11405;51.698;-0.292;2022-09-13T02:28:58;4.43;;;2.72;;
22476;SDS011;11405;51.698;-0.292;2022-09-13T02:31:30;7.38;;;3.08;;
22476;SDS011;11405;51.698;-0.292;2022-09-13T02:33:59;6.05;;;2.63;;
22476;SDS011;11405;51.698;-0.292;2022-09-13T02:36:28;3.72;;;2.08;;
22476;SDS011;11405;51.698;-0.292;2022-09-13T02:38:56;10.60;;;2.75;;
22476;SDS011;11405;51.698;-0.292;2022-09-13T02:41:34;4.03;;;2.40;;
22476;SDS011;11405;51.698;-0.292;2022-09-13T02:44:06;5.80;;;2.50;;
22476;SDS011;11405;51.698;-0.292;2022-09-13T02:57:56;3.70;;;2.65;;
22476;SDS011;11405;51.698;-0.292;2022-09-13T03:00:01;4.93;;;2.75;;
22476;SDS011;11405;51.698;-0.292;2022-09-13T03:02:28;3.35;;;2.38;;
22476;SDS011;11405;51.698;-0.292;2022-09-13T03:04:57;4.25;;;2.92;;
22476;SDS011;11405;51.698;-0.292;2022-09-13T03:07:24;4.38;;;2.25;;
22476;SDS011;11405;51.698;-0.292;2022-09-13T03:09:53;2.83;;;2.38;;
22476;SDS011;11405;51.698;-0.292;2022-09-13T03:12:23;3.85;;;2.60;;
22476;SDS011;11405;51.698;-0.292;2022-09-13T03:22:40;9.38;;;2.70;;
22476;SDS011;11405;51.698;-0.292;2022-09-13T03:28:00;3.83;;;2.72;;
22476;SDS011;11405;51.698;-0.292;2022-09-13T03:30:28;4.10;;;3.20;;
22476;SDS011;11405;51.698;-0.292;2022-09-13T03:32:57;4.03;;;3.10;;
22476;SDS011;11405;51.698;-0.292;2022-09-13T03:35:36;4.25;;;2.75;;
22476;SDS011;11405;51.698;-0.292;2022-09-13T03:38:27;4.70;;;3.00;;
22476;SDS011;11405;51.698;-0.292;2022-09-13T03:40:51;4.15;;;3.00;;
22476;SDS011;11405;51.698;-0.292;2022-09-13T03:43:29;4.18;;;2.85;;
22476;SDS011;11405;51.698;-0.292;2022-09-13T03:46:00;9.93;;;3.17;;
22476;SDS011;11405;51.698;-0.292;2022-09-13T03:48:29;5.10;;;3.20;;
22476;SDS011;11405;51.698;-0.292;2022-09-13T03:50:55;4.70;;;3.38;;
22476;SDS011;11405;51.698;-0.292;2022-09-13T03:53:24;7.85;;;3.53;;
22476;SDS011;11405;51.698;-0.292;2022-09-13T03:55:51;4.57;;;3.35;;
22476;SDS011;11405;51.698;-0.292;2022-09-13T03:58:19;3.75;;;2.90;;
22476;SDS011;11405;51.698;-0.292;2022-09-13T04:00:46;3.88;;;2.97;;
22476;SDS011;11405;51.698;-0.292;2022-09-13T04:03:12;3.88;;;2.92;;
22476;SDS011;11405;51.698;-0.292;2022-09-13T04:05:39;5.97;;;3.60;;
22476;SDS011;11405;51.698;-0.292;2022-09-13T04:08:05;5.05;;;2.75;;
22476;SDS011;11405;51.698;-0.292;2022-09-13T04:10:32;4.18;;;2.65;;
22476;SDS011;11405;51.698;-0.292;2022-09-13T04:12:58;4.70;;;3.30;;
22476;SDS011;11405;51.698;-0.292;2022-09-13T04:15:24;5.68;;;3.47;;
22476;SDS011;11405;51.698;-0.292;2022-09-13T04:17:50;5.00;;;3.20;;
22476;SDS011;11405;51.698;-0.292;2022-09-13T04:20:16;7.53;;;4.32;;
22476;SDS011;11405;51.698;-0.292;2022-09-13T04:22:43;5.47;;;3.60;;
22476;SDS011;11405;51.698;-0.292;2022-09-13T04:25:09;6.72;;;4.47;;
22476;SDS011;11405;51.698;-0.292;2022-09-13T04:27:35;8.07;;;4.13;;
22476;SDS011;11405;51.698;-0.292;2022-09-13T04:30:01;5.75;;;3.78;;
22476;SDS011;11405;51.698;-0.292;2022-09-13T04:32:27;8.43;;;5.00;;
22476;SDS011;11405;51.698;-0.292;2022-09-13T04:34:53;8.70;;;4.95;;
22476;SDS011;11405;51.698;-0.292;2022-09-13T04:37:19;7.60;;;4.97;;
22476;SDS011;11405;51.698;-0.292;2022-09-13T04:39:45;8.70;;;6.25;;
22476;SDS011;11405;51.698;-0.292;2022-09-13T04:42:11;14.18;;;7.20;;
22476;SDS011;11405;51.698;-0.292;2022-09-13T04:44:38;9.00;;;6.80;;
22476;SDS011;11405;51.698;-0.292;2022-09-13T04:47:04;15.73;;;8.90;;
22476;SDS011;11405;51.698;-0.292;2022-09-13T04:49:32;11.80;;;7.97;;
22476;SDS011;11405;51.698;-0.292;2022-09-13T04:51:58;13.15;;;8.07;;
22476;SDS011;11405;51.698;-0.292;2022-09-13T04:54:24;11.05;;;7.95;;
22476;SDS011;11405;51.698;-0.292;2022-09-13T04:56:50;13.77;;;8.18;;
22476;SDS011;11405;51.698;-0.292;2022-09-13T04:59:16;15.45;;;8.32;;
22476;SDS011;11405;51.698;-0.292;2022-09-13T05:01:42;10.30;;;7.78;;
22476;SDS011;11405;51.698;-0.292;2022-09-13T05:04:08;11.95;;;8.48;;
22476;SDS011;11405;51.698;-0.292;2022-09-13T05:06:34;13.75;;;7.82;;
22476;SDS011;11405;51.698;-0.292;2022-09-13T05:09:01;11.60;;;7.15;;
22476;SDS011;11405;51.698;-0.292;2022-09-13T05:11:27;8.02;;;5.88;;
22476;SDS011;11405;51.698;-0.292;2022-09-13T05:13:55;9.55;;;6.30;;
22476;SDS011;11405;51.698;-0.292;2022-09-13T05:16:22;11.13;;;6.57;;
22476;SDS011;11405;51.698;-0.292;2022-09-13T05:18:48;8.10;;;5.25;;
22476;SDS011;11405;51.698;-0.292;2022-09-13T05:21:15;7.57;;;5.05;;
22476;SDS011;11405;51.698;-0.292;2022-09-13T05:23:41;7.47;;;4.75;;
22476;SDS011;11405;51.698;-0.292;2022-09-13T05:26:07;7.20;;;3.83;;
22476;SDS011;11405;51.698;-0.292;2022-09-13T05:28:34;6.88;;;4.13;;
22476;SDS011;11405;51.698;-0.292;2022-09-13T05:31:02;5.43;;;4.20;;
22476;SDS011;11405;51.698;-0.292;2022-09-13T05:33:29;7.78;;;4.50;;
22476;SDS011;11405;51.698;-0.292;2022-09-13T05:35:55;7.88;;;4.25;;
22476;SDS011;11405;51.698;-0.292;2022-09-13T05:38:22;6.75;;;4.07;;
22476;SDS011;11405;51.698;-0.292;2022-09-13T05:40:52;5.90;;;3.85;;
22476;SDS011;11405;51.698;-0.292;2022-09-13T05:43:20;5.07;;;3.72;;
22476;SDS011;11405;51.698;-0.292;2022-09-13T05:45:46;7.10;;;3.80;;
22476;SDS011;11405;51.698;-0.292;2022-09-13T05:48:12;6.10;;;3.85;;
22476;SDS011;11405;51.698;-0.292;2022-09-13T05:50:38;4.22;;;2.63;;
22476;SDS011;11405;51.698;-0.292;2022-09-13T05:53:04;5.07;;;2.20;;
22476;SDS011;11405;51.698;-0.292;2022-09-13T05:55:30;4.68;;;1.83;;
22476;SDS011;11405;51.698;-0.292;2022-09-13T06:00:23;1.10;;;0.98;;
22476;SDS011;11405;51.698;-0.292;2022-09-13T06:02:49;3.20;;;1.02;;
22476;SDS011;11405;51.698;-0.292;2022-09-13T06:05:15;1.02;;;0.82;;
22476;SDS011;11405;51.698;-0.292;2022-09-13T06:07:41;3.88;;;0.75;;
22476;SDS011;11405;51.698;-0.292;2022-09-13T06:10:08;1.98;;;0.70;;
22476;SDS011;11405;51.698;-0.292;2022-09-13T06:12:34;2.33;;;0.43;;
22476;SDS011;11405;51.698;-0.292;2022-09-13T06:15:00;1.02;;;0.80;;
22476;SDS011;11405;51.698;-0.292;2022-09-13T06:17:26;3.47;;;0.80;;
22476;SDS011;11405;51.698;-0.292;2022-09-13T06:19:52;4.05;;;0.52;;
22476;SDS011;11405;51.698;-0.292;2022-09-13T06:22:18;2.63;;;0.75;;
22476;SDS011;11405;51.698;-0.292;2022-09-13T06:24:44;5.80;;;0.70;;
22476;SDS011;11405;51.698;-0.292;2022-09-13T06:27:10;2.03;;;0.70;;
22476;SDS011;11405;51.698;-0.292;2022-09-13T06:29:36;5.45;;;1.27;;
22476;SDS011;11405;51.698;-0.292;2022-09-13T06:32:02;1.90;;;0.93;;
22476;SDS011;11405;51.698;-0.292;2022-09-13T06:34:28;2.58;;;0.90;;
22476;SDS011;11405;51.698;-0.292;2022-09-13T06:36:54;0.77;;;0.65;;
22476;SDS011;11405;51.698;-0.292;2022-09-13T06:39:20;2.13;;;0.85;;
22476;SDS011;11405;51.698;-0.292;2022-09-13T06:41:46;2.88;;;0.70;;
22476;SDS011;11405;51.698;-0.292;2022-09-13T06:44:12;3.38;;;1.00;;
22476;SDS011;11405;51.698;-0.292;2022-09-13T06:46:38;3.58;;;1.50;;
22476;SDS011;11405;51.698;-0.292;2022-09-13T06:49:05;3.05;;;0.70;;
22476;SDS011;11405;51.698;-0.292;2022-09-13T06:51:33;3.17;;;0.90;;
22476;SDS011;11405;51.698;-0.292;2022-09-13T06:53:59;3.55;;;0.90;;
22476;SDS011;11405;51.698;-0.292;2022-09-13T06:56:27;3.22;;;1.10;;
22476;SDS011;11405;51.698;-0.292;2022-09-13T06:58:55;5.15;;;0.98;;
22476;SDS011;11405;51.698;-0.292;2022-09-13T07:01:22;1.25;;;0.65;;
22476;SDS011;11405;51.698;-0.292;2022-09-13T07:03:49;2.60;;;1.05;;
22476;SDS011;11405;51.698;-0.292;2022-09-13T07:06:16;2.97;;;1.08;;
22476;SDS011;11405;51.698;-0.292;2022-09-13T07:08:43;2.30;;;1.00;;
22476;SDS011;11405;51.698;-0.292;2022-09-13T07:11:10;1.02;;;0.80;;
22476;SDS011;11405;51.698;-0.292;2022-09-13T07:16:03;1.95;;;0.90;;
22476;SDS011;11405;51.698;-0.292;2022-09-13T07:18:29;3.17;;;1.15;;
22476;SDS011;11405;51.698;-0.292;2022-09-13T07:21:02;2.00;;;1.08;;
22476;SDS011;11405;51.698;-0.292;2022-09-13T07:23:29;2.38;;;0.98;;
22476;SDS011;11405;51.698;-0.292;2022-09-13T07:25:55;2.97;;;1.10;;
22476;SDS011;11405;51.698;-0.292;2022-09-13T07:28:26;3.08;;;0.75;;
22476;SDS011;11405;51.698;-0.292;2022-09-13T07:30:52;6.13;;;1.05;;
22476;SDS011;11405;51.698;-0.292;2022-09-13T07:33:18;1.88;;;0.73;;
22476;SDS011;11405;51.698;-0.292;2022-09-13T07:35:45;2.67;;;0.77;;
22476;SDS011;11405;51.698;-0.292;2022-09-13T07:38:11;3.20;;;0.60;;
22476;SDS011;11405;51.698;-0.292;2022-09-13T07:40:37;2.10;;;1.00;;
22476;SDS011;11405;51.698;-0.292;2022-09-13T07:43:03;1.95;;;0.90;;
22476;SDS011;11405;51.698;-0.292;2022-09-13T07:45:29;2.83;;;0.80;;
22476;SDS011;11405;51.698;-0.292;2022-09-13T07:47:55;2.10;;;0.75;;
22476;SDS011;11405;51.698;-0.292;2022-09-13T07:50:21;3.30;;;0.93;;
22476;SDS011;11405;51.698;-0.292;2022-09-13T07:52:47;5.00;;;0.80;;
22476;SDS011;11405;51.698;-0.292;2022-09-13T07:55:13;1.63;;;0.70;;
22476;SDS011;11405;51.698;-0.292;2022-09-13T07:57:39;3.80;;;1.00;;
22476;SDS011;11405;51.698;-0.292;2022-09-13T08:00:06;2.65;;;0.80;;
22476;SDS011;11405;51.698;-0.292;2022-09-13T08:02:32;2.25;;;0.85;;
22476;SDS011;11405;51.698;-0.292;2022-09-13T08:05:01;4.30;;;0.93;;
22476;SDS011;11405;51.698;-0.292;2022-09-13T08:07:27;3.15;;;0.90;;
22476;SDS011;11405;51.698;-0.292;2022-09-13T08:09:53;2.60;;;0.68;;
22476;SDS011;11405;51.698;-0.292;2022-09-13T08:12:20;3.42;;;1.00;;
22476;SDS011;11405;51.698;-0.292;2022-09-13T08:14:46;2.55;;;1.13;;
22476;SDS011;11405;51.698;-0.292;2022-09-13T08:17:12;1.52;;;0.70;;
22476;SDS011;11405;51.698;-0.292;2022-09-13T08:19:38;1.23;;;0.93;;
22476;SDS011;11405;51.698;-0.292;2022-09-13T08:22:04;4.60;;;0.70;;
22476;SDS011;11405;51.698;-0.292;2022-09-13T08:24:30;4.40;;;1.00;;
22476;SDS011;11405;51.698;-0.292;2022-09-13T08:26:56;2.60;;;0.88;;
22476;SDS011;11405;51.698;-0.292;2022-09-13T08:29:22;3.90;;;0.98;;
22476;SDS011;11405;51.698;-0.292;2022-09-13T08:31:49;1.40;;;0.93;;
22476;SDS011;11405;51.698;-0.292;2022-09-13T08:34:16;2.83;;;1.05;;
22476;SDS011;11405;51.698;-0.292;2022-09-13T08:36:44;3.20;;;0.93;;
22476;SDS011;11405;51.698;-0.292;2022-09-13T08:39:10;4.78;;;0.93;;
22476;SDS011;11405;51.698;-0.292;2022-09-13T08:46:39;2.70;;;0.88;;
22476;SDS011;11405;51.698;-0.292;2022-09-13T08:49:07;4.47;;;0.93;;
22476;SDS011;11405;51.698;-0.292;2022-09-13T08:54:12;4.50;;;0.95;;
22476;SDS011;11405;51.698;-0.292;2022-09-13T09:04:49;2.63;;;0.80;;
22476;SDS011;11405;51.698;-0.292;2022-09-13T09:07:20;3.22;;;0.73;;
22476;SDS011;11405;51.698;-0.292;2022-09-13T09:12:19;5.43;;;1.23;;
22476;SDS011;11405;51.698;-0.292;2022-09-13T09:15:32;4.13;;;1.10;;
22476;SDS011;11405;51.698;-0.292;2022-09-13T09:18:01;2.83;;;0.80;;
22476;SDS011;11405;51.698;-0.292;2022-09-13T09:20:29;1.02;;;0.70;;
22476;SDS011;11405;51.698;-0.292;2022-09-13T09:22:57;5.60;;;1.10;;
22476;SDS011;11405;51.698;-0.292;2022-09-13T09:25:25;4.95;;;0.90;;
22476;SDS011;11405;51.698;-0.292;2022-09-13T09:27:52;2.58;;;0.93;;
22476;SDS011;11405;51.698;-0.292;2022-09-13T09:30:18;1.98;;;0.95;;
22476;SDS011;11405;51.698;-0.292;2022-09-13T09:40:30;2.65;;;0.80;;
22476;SDS011;11405;51.698;-0.292;2022-09-13T09:42:58;2.35;;;1.05;;
22476;SDS011;11405;51.698;-0.292;2022-09-13T09:47:51;3.60;;;1.08;;
22476;SDS011;11405;51.698;-0.292;2022-09-13T09:50:22;2.40;;;1.13;;
22476;SDS011;11405;51.698;-0.292;2022-09-13T09:55:36;1.65;;;0.77;;
22476;SDS011;11405;51.698;-0.292;2022-09-13T09:58:06;1.98;;;0.80;;
22476;SDS011;11405;51.698;-0.292;2022-09-13T10:00:33;4.65;;;1.20;;
22476;SDS011;11405;51.698;-0.292;2022-09-13T10:03:04;2.55;;;1.30;;
22476;SDS011;11405;51.698;-0.292;2022-09-13T10:05:31;4.47;;;0.90;;
22476;SDS011;11405;51.698;-0.292;2022-09-13T10:10:25;2.45;;;0.80;;
22476;SDS011;11405;51.698;-0.292;2022-09-13T10:12:52;3.72;;;0.90;;
22476;SDS011;11405;51.698;-0.292;2022-09-13T10:15:20;1.83;;;0.90;;
22476;SDS011;11405;51.698;-0.292;2022-09-13T10:20:32;3.72;;;0.70;;
22476;SDS011;11405;51.698;-0.292;2022-09-13T10:25:40;6.10;;;0.85;;
22476;SDS011;11405;51.698;-0.292;2022-09-13T10:28:12;6.55;;;1.00;;
22476;SDS011;11405;51.698;-0.292;2022-09-13T10:30:47;0.70;;;0.60;;
22476;SDS011;11405;51.698;-0.292;2022-09-13T10:35:46;3.40;;;0.80;;
22476;SDS011;11405;51.698;-0.292;2022-09-13T10:38:31;3.25;;;0.73;;
22476;SDS011;11405;51.698;-0.292;2022-09-13T10:40:58;4.32;;;0.60;;
22476;SDS011;11405;51.698;-0.292;2022-09-13T10:43:26;3.63;;;0.60;;
22476;SDS011;11405;51.698;-0.292;2022-09-13T10:45:54;3.78;;;0.85;;
22476;SDS011;11405;51.698;-0.292;2022-09-13T10:48:20;3.78;;;0.80;;
22476;SDS011;11405;51.698;-0.292;2022-09-13T10:53:29;3.75;;;0.60;;
22476;SDS011;11405;51.698;-0.292;2022-09-13T10:55:56;1.08;;;0.57;;
22476;SDS011;11405;51.698;-0.292;2022-09-13T10:58:22;2.60;;;0.65;;
22476;SDS011;11405;51.698;-0.292;2022-09-13T11:03:22;5.72;;;0.85;;
22476;SDS011;11405;51.698;-0.292;2022-09-13T11:06:01;2.47;;;0.70;;
22476;SDS011;11405;51.698;-0.292;2022-09-13T11:08:38;1.63;;;0.90;;
22476;SDS011;11405;51.698;-0.292;2022-09-13T11:11:24;4.00;;;0.70;;
22476;SDS011;11405;51.698;-0.292;2022-09-13T11:14:10;2.55;;;0.70;;
22476;SDS011;11405;51.698;-0.292;2022-09-13T11:27:01;8.10;;;1.10;;
22476;SDS011;11405;51.698;-0.292;2022-09-13T11:29:55;2.30;;;0.82;;
22476;SDS011;11405;51.698;-0.292;2022-09-13T11:42:48;4.55;;;2.03;;
22476;SDS011;11405;51.698;-0.292;2022-09-13T11:45:20;3.08;;;1.40;;
22476;SDS011;11405;51.698;-0.292;2022-09-13T11:47:51;6.30;;;1.85;;
22476;SDS011;11405;51.698;-0.292;2022-09-13T11:55:37;2.70;;;1.38;;
22476;SDS011;11405;51.698;-0.292;2022-09-13T11:58:05;5.43;;;1.67;;
22476;SDS011;11405;51.698;-0.292;2022-09-13T12:00:46;1.58;;;1.10;;
22476;SDS011;11405;51.698;-0.292;2022-09-13T12:10:52;1.58;;;1.27;;
22476;SDS011;11405;51.698;-0.292;2022-09-13T12:13:21;6.55;;;1.38;;
22476;SDS011;11405;51.698;-0.292;2022-09-13T12:15:50;2.17;;;1.20;;
22476;SDS011;11405;51.698;-0.292;2022-09-13T12:18:25;4.00;;;1.75;;
22476;SDS011;11405;51.698;-0.292;2022-09-13T12:23:19;3.05;;;1.23;;
22476;SDS011;11405;51.698;-0.292;2022-09-13T12:25:54;3.53;;;1.50;;
22476;SDS011;11405;51.698;-0.292;2022-09-13T12:28:29;3.75;;;1.40;;
22476;SDS011;11405;51.698;-0.292;2022-09-13T12:31:32;3.45;;;1.25;;
22476;SDS011;11405;51.698;-0.292;2022-09-13T12:33:51;4.25;;;1.33;;
22476;SDS011;11405;51.698;-0.292;2022-09-13T12:48:51;2.53;;;1.30;;
22476;SDS011;11405;51.698;-0.292;2022-09-13T12:51:30;3.55;;;1.40;;
22476;SDS011;11405;51.698;-0.292;2022-09-13T12:56:38;2.88;;;1.27;;
22476;SDS011;11405;51.698;-0.292;2022-09-13T13:01:32;6.07;;;1.65;;
22476;SDS011;11405;51.698;-0.292;2022-09-13T13:04:03;4.65;;;1.50;;
22476;SDS011;11405;51.698;-0.292;2022-09-13T13:09:04;1.98;;;1.30;;
22476;SDS011;11405;51.698;-0.292;2022-09-13T13:11:42;5.75;;;1.52;;
22476;SDS011;11405;51.698;-0.292;2022-09-13T13:16:36;9.50;;;1.25;;
22476;SDS011;11405;51.698;-0.292;2022-09-13T13:19:26;1.92;;;1.10;;
22476;SDS011;11405;51.698;-0.292;2022-09-13T13:21:49;2.83;;;2.00;;
22476;SDS011;11405;51.698;-0.292;2022-09-13T13:32:03;3.30;;;1.30;;
22476;SDS011;11405;51.698;-0.292;2022-09-13T13:41:56;6.28;;;1.45;;
22476;SDS011;11405;51.698;-0.292;2022-09-13T13:46:52;5.53;;;1.13;;
22476;SDS011;11405;51.698;-0.292;2022-09-13T13:59:46;6.47;;;1.20;;
22476;SDS011;11405;51.698;-0.292;2022-09-13T14:02:13;2.38;;;1.33;;
22476;SDS011;11405;51.698;-0.292;2022-09-13T14:04:53;3.58;;;1.38;;
22476;SDS011;11405;51.698;-0.292;2022-09-13T14:15:26;3.67;;;1.52;;
22476;SDS011;11405;51.698;-0.292;2022-09-13T14:20:31;2.65;;;1.45;;
22476;SDS011;11405;51.698;-0.292;2022-09-13T14:23:10;2.65;;;1.23;;
22476;SDS011;11405;51.698;-0.292;2022-09-13T14:25:36;3.25;;;1.10;;
22476;SDS011;11405;51.698;-0.292;2022-09-13T14:28:02;4.00;;;1.13;;
22476;SDS011;11405;51.698;-0.292;2022-09-13T14:30:33;4.47;;;1.40;;
22476;SDS011;11405;51.698;-0.292;2022-09-13T14:33:00;4.43;;;0.90;;
22476;SDS011;11405;51.698;-0.292;2022-09-13T14:37:55;2.58;;;1.15;;
22476;SDS011;11405;51.698;-0.292;2022-09-13T14:40:34;2.50;;;0.70;;
22476;SDS011;11405;51.698;-0.292;2022-09-13T14:43:01;3.63;;;1.02;;
22476;SDS011;11405;51.698;-0.292;2022-09-13T14:45:38;3.00;;;0.95;;
22476;SDS011;11405;51.698;-0.292;2022-09-13T14:50:31;6.88;;;1.08;;
22476;SDS011;11405;51.698;-0.292;2022-09-13T14:55:25;0.95;;;0.80;;
22476;SDS011;11405;51.698;-0.292;2022-09-13T14:57:54;4.93;;;0.88;;
22476;SDS011;11405;51.698;-0.292;2022-09-13T15:00:22;3.03;;;0.82;;
22476;SDS011;11405;51.698;-0.292;2022-09-13T15:02:57;6.70;;;1.08;;
22476;SDS011;11405;51.698;-0.292;2022-09-13T15:05:28;1.98;;;1.20;;
22476;SDS011;11405;51.698;-0.292;2022-09-13T15:07:56;4.00;;;1.02;;
22476;SDS011;11405;51.698;-0.292;2022-09-13T15:10:25;2.33;;;0.90;;
22476;SDS011;11405;51.698;-0.292;2022-09-13T15:18:00;1.80;;;0.90;;
22476;SDS011;11405;51.698;-0.292;2022-09-13T15:20:43;4.38;;;1.27;;
22476;SDS011;11405;51.698;-0.292;2022-09-13T15:23:17;5.43;;;1.48;;
22476;SDS011;11405;51.698;-0.292;2022-09-13T15:25:51;3.33;;;0.98;;
22476;SDS011;11405;51.698;-0.292;2022-09-13T15:28:28;2.22;;;1.10;;
22476;SDS011;11405;51.698;-0.292;2022-09-13T15:30:55;7.13;;;1.02;;
22476;SDS011;11405;51.698;-0.292;2022-09-13T15:33:23;2.40;;;1.00;;
22476;SDS011;11405;51.698;-0.292;2022-09-13T15:35:49;2.75;;;0.93;;
22476;SDS011;11405;51.698;-0.292;2022-09-13T15:38:30;1.55;;;0.80;;
22476;SDS011;11405;51.698;-0.292;2022-09-13T15:41:12;4.70;;;0.80;;
22476;SDS011;11405;51.698;-0.292;2022-09-13T15:43:39;2.63;;;1.10;;
22476;SDS011;11405;51.698;-0.292;2022-09-13T15:46:05;3.10;;;0.88;;
22476;SDS011;11405;51.698;-0.292;2022-09-13T15:48:32;5.82;;;1.30;;
22476;SDS011;11405;51.698;-0.292;2022-09-13T15:53:31;1.73;;;1.10;;
22476;SDS011;11405;51.698;-0.292;2022-09-13T15:55:57;1.25;;;0.95;;
22476;SDS011;11405;51.698;-0.292;2022-09-13T15:58:23;3.65;;;1.20;;
22476;SDS011;11405;51.698;-0.292;2022-09-13T16:00:49;1.35;;;0.85;;
22476;SDS011;11405;51.698;-0.292;2022-09-13T16:03:15;5.05;;;1.10;;
22476;SDS011;11405;51.698;-0.292;2022-09-13T16:05:41;5.53;;;1.05;;
22476;SDS011;11405;51.698;-0.292;2022-09-13T16:08:08;4.25;;;1.10;;
22476;SDS011;11405;51.698;-0.292;2022-09-13T16:10:37;4.13;;;1.10;;
22476;SDS011;11405;51.698;-0.292;2022-09-13T16:13:03;3.20;;;1.30;;
22476;SDS011;11405;51.698;-0.292;2022-09-13T16:15:29;5.20;;;1.10;;
22476;SDS011;11405;51.698;-0.292;2022-09-13T16:17:55;2.63;;;0.95;;
22476;SDS011;11405;51.698;-0.292;2022-09-13T16:20:21;3.42;;;1.00;;
22476;SDS011;11405;51.698;-0.292;2022-09-13T16:22:47;2.90;;;0.95;;
22476;SDS011;11405;51.698;-0.292;2022-09-13T16:25:13;2.50;;;1.13;;
22476;SDS011;11405;51.698;-0.292;2022-09-13T16:27:40;6.18;;;1.30;;
22476;SDS011;11405;51.698;-0.292;2022-09-13T16:30:09;4.18;;;1.15;;
22476;SDS011;11405;51.698;-0.292;2022-09-13T16:32:35;2.58;;;1.13;;
22476;SDS011;11405;51.698;-0.292;2022-09-13T16:35:01;3.97;;;1.23;;
22476;SDS011;11405;51.698;-0.292;2022-09-13T16:37:27;1.58;;;1.05;;
22476;SDS011;11405;51.698;-0.292;2022-09-13T16:39:54;6.10;;;1.23;;
22476;SDS011;11405;51.698;-0.292;2022-09-13T16:42:21;5.57;;;1.10;;
22476;SDS011;11405;51.698;-0.292;2022-09-13T16:44:47;3.90;;;1.15;;
22476;SDS011;11405;51.698;-0.292;2022-09-13T16:47:14;5.30;;;1.20;;
22476;SDS011;11405;51.698;-0.292;2022-09-13T16:49:40;5.00;;;1.50;;
22476;SDS011;11405;51.698;-0.292;2022-09-13T16:54:37;3.15;;;0.98;;
22476;SDS011;11405;51.698;-0.292;2022-09-13T16:57:04;3.03;;;1.23;;
22476;SDS011;11405;51.698;-0.292;2022-09-13T16:59:31;1.80;;;1.10;;
22476;SDS011;11405;51.698;-0.292;2022-09-13T17:01:58;3.80;;;1.50;;
22476;SDS011;11405;51.698;-0.292;2022-09-13T17:04:24;4.90;;;1.00;;
22476;SDS011;11405;51.698;-0.292;2022-09-13T17:06:50;4.70;;;0.88;;
22476;SDS011;11405;51.698;-0.292;2022-09-13T17:09:16;2.65;;;1.05;;
22476;SDS011;11405;51.698;-0.292;2022-09-13T17:11:45;1.45;;;1.00;;
22476;SDS011;11405;51.698;-0.292;2022-09-13T17:14:12;2.15;;;0.93;;
22476;SDS011;11405;51.698;-0.292;2022-09-13T17:16:45;2.75;;;1.17;;
22476;SDS011;11405;51.698;-0.292;2022-09-13T17:19:13;3.03;;;1.00;;
22476;SDS011;11405;51.698;-0.292;2022-09-13T17:21:39;1.27;;;1.00;;
22476;SDS011;11405;51.698;-0.292;2022-09-13T17:24:05;2.92;;;1.08;;
22476;SDS011;11405;51.698;-0.292;2022-09-13T17:26:31;3.70;;;1.20;;
22476;SDS011;11405;51.698;-0.292;2022-09-13T17:28:57;3.50;;;1.08;;
22476;SDS011;11405;51.698;-0.292;2022-09-13T17:31:23;2.92;;;1.27;;
22476;SDS011;11405;51.698;-0.292;2022-09-13T17:33:49;2.35;;;1.15;;
22476;SDS011;11405;51.698;-0.292;2022-09-13T17:36:17;1.75;;;1.00;;
22476;SDS011;11405;51.698;-0.292;2022-09-13T17:38:43;3.85;;;1.30;;
22476;SDS011;11405;51.698;-0.292;2022-09-13T17:41:14;4.70;;;1.17;;
22476;SDS011;11405;51.698;-0.292;2022-09-13T17:43:40;4.25;;;1.30;;
22476;SDS011;11405;51.698;-0.292;2022-09-13T17:46:09;6.07;;;1.45;;
22476;SDS011;11405;51.698;-0.292;2022-09-13T17:48:36;2.85;;;1.27;;
22476;SDS011;11405;51.698;-0.292;2022-09-13T17:51:06;4.43;;;1.23;;
22476;SDS011;11405;51.698;-0.292;2022-09-13T17:53:36;2.13;;;1.17;;
22476;SDS011;11405;51.698;-0.292;2022-09-13T17:56:03;4.68;;;1.05;;
22476;SDS011;11405;51.698;-0.292;2022-09-13T17:58:29;6.95;;;1.27;;
22476;SDS011;11405;51.698;-0.292;2022-09-13T18:01:02;2.35;;;1.10;;
22476;SDS011;11405;51.698;-0.292;2022-09-13T18:03:29;3.63;;;1.25;;
22476;SDS011;11405;51.698;-0.292;2022-09-13T18:08:22;5.20;;;1.13;;
22476;SDS011;11405;51.698;-0.292;2022-09-13T18:10:48;6.20;;;0.95;;
22476;SDS011;11405;51.698;-0.292;2022-09-13T18:13:14;5.72;;;1.48;;
22476;SDS011;11405;51.698;-0.292;2022-09-13T18:15:40;9.85;;;1.17;;
22476;SDS011;11405;51.698;-0.292;2022-09-13T18:18:06;7.00;;;1.33;;
22476;SDS011;11405;51.698;-0.292;2022-09-13T18:20:32;3.03;;;1.40;;